AIRPORT ID: 9S2

DATE: 2021-12-09 ZULU TIME: 0.02 LOCAL TIME: 17.02


METAR K9S2 090002Z AUTO 25013KT 04/M03 A2925

ALTIMETER: A2925 Q991

DENSITY ALT: 2400 Ft

WIND DIRECT: 260

WIND SPEED: 13 Gust

WIND CONDITIONS:

VISIBILTY: Not Available

TEMPERATURE: 39 F 4 C

DEW POINT: 26 F -3 C

HUMID: 60%

LCL: 1,000-3,000 feet

RADIO CHECK: 0

ADVISARIES: 0

GREETINGS: 0

CONVERSATIONS: 0